sensor_id;sensor_type;location;lat;lon;timestamp;temperature;humidity
6758;DHT22;3416;53.074;8.822;2022-10-29T00:01:01;16.60;99.90
6758;DHT22;3416;53.074;8.822;2022-10-29T00:03:28;16.60;99.90
6758;DHT22;3416;53.074;8.822;2022-10-29T00:05:59;16.50;99.90
6758;DHT22;3416;53.074;8.822;2022-10-29T00:08:27;16.50;99.90
6758;DHT22;3416;53.074;8.822;2022-10-29T00:11:04;16.40;99.90
6758;DHT22;3416;53.074;8.822;2022-10-29T00:13:32;16.40;99.90
6758;DHT22;3416;53.074;8.822;2022-10-29T00:15:59;16.40;99.90
6758;DHT22;3416;53.074;8.822;2022-10-29T00:18:29;16.40;99.90
6758;DHT22;3416;53.074;8.822;2022-10-29T00:21:01;16.40;99.90
6758;DHT22;3416;53.074;8.822;2022-10-29T00:23:28;16.50;99.90
6758;DHT22;3416;53.074;8.822;2022-10-29T00:25:56;16.40;99.90
6758;DHT22;3416;53.074;8.822;2022-10-29T00:28:23;16.50;99.90
6758;DHT22;3416;53.074;8.822;2022-10-29T00:30:50;16.50;99.90
6758;DHT22;3416;53.074;8.822;2022-10-29T00:33:17;16.50;99.90
6758;DHT22;3416;53.074;8.822;2022-10-29T00:35:54;16.50;99.90
6758;DHT22;3416;53.074;8.822;2022-10-29T00:38:22;16.40;99.90
6758;DHT22;3416;53.074;8.822;2022-10-29T00:40:49;16.50;99.90
6758;DHT22;3416;53.074;8.822;2022-10-29T00:43:19;16.50;99.90
6758;DHT22;3416;53.074;8.822;2022-10-29T00:45:49;16.50;99.90
6758;DHT22;3416;53.074;8.822;2022-10-29T00:48:19;16.50;99.90
6758;DHT22;3416;53.074;8.822;2022-10-29T00:50:49;16.50;99.90
6758;DHT22;3416;53.074;8.822;2022-10-29T00:53:19;16.60;99.90
6758;DHT22;3416;53.074;8.822;2022-10-29T00:55:48;16.60;99.90
6758;DHT22;3416;53.074;8.822;2022-10-29T00:58:15;16.70;99.90
6758;DHT22;3416;53.074;8.822;2022-10-29T01:00:43;16.70;99.90
6758;DHT22;3416;53.074;8.822;2022-10-29T01:03:10;16.60;99.90
6758;DHT22;3416;53.074;8.822;2022-10-29T01:05:37;16.60;99.90
6758;DHT22;3416;53.074;8.822;2022-10-29T01:08:05;16.60;99.90
6758;DHT22;3416;53.074;8.822;2022-10-29T01:10:48;16.70;99.90
6758;DHT22;3416;53.074;8.822;2022-10-29T01:13:28;16.70;99.90
6758;DHT22;3416;53.074;8.822;2022-10-29T01:16:04;16.70;99.90
6758;DHT22;3416;53.074;8.822;2022-10-29T01:18:37;16.70;99.90
6758;DHT22;3416;53.074;8.822;2022-10-29T01:24:54;16.80;99.90
6758;DHT22;3416;53.074;8.822;2022-10-29T01:27:55;16.80;99.90
6758;DHT22;3416;53.074;8.822;2022-10-29T01:31:00;16.70;99.90
6758;DHT22;3416;53.074;8.822;2022-10-29T01:33:37;16.80;99.90
6758;DHT22;3416;53.074;8.822;2022-10-29T01:36:12;16.80;99.90
6758;DHT22;3416;53.074;8.822;2022-10-29T01:38:47;16.90;99.90
6758;DHT22;3416;53.074;8.822;2022-10-29T01:41:20;16.90;99.90
6758;DHT22;3416;53.074;8.822;2022-10-29T01:43:53;16.80;99.90
6758;DHT22;3416;53.074;8.822;2022-10-29T01:46:24;16.90;99.90
6758;DHT22;3416;53.074;8.822;2022-10-29T01:48:56;16.90;99.90
6758;DHT22;3416;53.074;8.822;2022-10-29T01:51:26;16.90;99.90
6758;DHT22;3416;53.074;8.822;2022-10-29T01:53:54;16.90;99.90
6758;DHT22;3416;53.074;8.822;2022-10-29T01:56:22;16.90;99.90
6758;DHT22;3416;53.074;8.822;2022-10-29T01:58:51;17.00;99.90
6758;DHT22;3416;53.074;8.822;2022-10-29T02:01:33;17.00;99.90
6758;DHT22;3416;53.074;8.822;2022-10-29T02:04:12;17.00;99.90
6758;DHT22;3416;53.074;8.822;2022-10-29T02:06:52;17.00;99.90
6758;DHT22;3416;53.074;8.822;2022-10-29T02:09:30;16.90;99.90
6758;DHT22;3416;53.074;8.822;2022-10-29T02:12:05;16.80;99.90
6758;DHT22;3416;53.074;8.822;2022-10-29T02:14:38;16.70;99.90
6758;DHT22;3416;53.074;8.822;2022-10-29T02:17:07;16.60;99.90
6758;DHT22;3416;53.074;8.822;2022-10-29T02:19:35;16.50;99.90
6758;DHT22;3416;53.074;8.822;2022-10-29T02:22:03;16.40;99.90
6758;DHT22;3416;53.074;8.822;2022-10-29T02:24:30;16.50;99.90
6758;DHT22;3416;53.074;8.822;2022-10-29T02:26:58;16.40;99.90
6758;DHT22;3416;53.074;8.822;2022-10-29T02:29:26;16.40;99.90
6758;DHT22;3416;53.074;8.822;2022-10-29T02:31:53;16.50;99.90
6758;DHT22;3416;53.074;8.822;2022-10-29T02:34:22;16.50;99.90
6758;DHT22;3416;53.074;8.822;2022-10-29T02:36:49;16.40;99.90
6758;DHT22;3416;53.074;8.822;2022-10-29T02:39:21;16.40;99.90
6758;DHT22;3416;53.074;8.822;2022-10-29T02:41:48;16.40;99.90
6758;DHT22;3416;53.074;8.822;2022-10-29T02:44:16;16.20;99.90
6758;DHT22;3416;53.074;8.822;2022-10-29T02:46:43;16.20;99.90
6758;DHT22;3416;53.074;8.822;2022-10-29T02:49:12;16.20;99.90
6758;DHT22;3416;53.074;8.822;2022-10-29T02:51:50;16.00;99.90
6758;DHT22;3416;53.074;8.822;2022-10-29T02:54:17;16.00;99.90
6758;DHT22;3416;53.074;8.822;2022-10-29T02:56:44;15.90;99.90
6758;DHT22;3416;53.074;8.822;2022-10-29T02:59:12;15.90;99.90
6758;DHT22;3416;53.074;8.822;2022-10-29T03:01:39;15.90;99.90
6758;DHT22;3416;53.074;8.822;2022-10-29T03:04:06;15.80;99.90
6758;DHT22;3416;53.074;8.822;2022-10-29T03:06:32;15.70;99.90
6758;DHT22;3416;53.074;8.822;2022-10-29T03:09:02;15.50;99.90
6758;DHT22;3416;53.074;8.822;2022-10-29T03:11:29;15.50;99.90
6758;DHT22;3416;53.074;8.822;2022-10-29T03:13:56;15.40;99.90
6758;DHT22;3416;53.074;8.822;2022-10-29T03:16:23;15.40;99.90
6758;DHT22;3416;53.074;8.822;2022-10-29T03:18:51;15.30;99.90
6758;DHT22;3416;53.074;8.822;2022-10-29T03:21:18;15.20;99.90
6758;DHT22;3416;53.074;8.822;2022-10-29T03:23:45;15.20;99.90
6758;DHT22;3416;53.074;8.822;2022-10-29T03:26:14;15.20;99.90
6758;DHT22;3416;53.074;8.822;2022-10-29T03:28:41;15.20;99.90
6758;DHT22;3416;53.074;8.822;2022-10-29T03:31:08;15.20;99.90
6758;DHT22;3416;53.074;8.822;2022-10-29T03:33:36;15.30;99.90
6758;DHT22;3416;53.074;8.822;2022-10-29T03:36:04;15.20;99.90
6758;DHT22;3416;53.074;8.822;2022-10-29T03:38:32;15.20;99.90
6758;DHT22;3416;53.074;8.822;2022-10-29T03:41:00;15.10;99.90
6758;DHT22;3416;53.074;8.822;2022-10-29T03:43:34;15.20;99.90
6758;DHT22;3416;53.074;8.822;2022-10-29T03:46:01;15.00;99.90
6758;DHT22;3416;53.074;8.822;2022-10-29T03:48:28;15.00;99.90
6758;DHT22;3416;53.074;8.822;2022-10-29T03:50:56;14.90;99.90
6758;DHT22;3416;53.074;8.822;2022-10-29T03:53:23;14.90;99.90
6758;DHT22;3416;53.074;8.822;2022-10-29T03:55:51;14.80;99.90
6758;DHT22;3416;53.074;8.822;2022-10-29T03:58:17;14.70;99.90
6758;DHT22;3416;53.074;8.822;2022-10-29T04:00:54;14.80;99.90
6758;DHT22;3416;53.074;8.822;2022-10-29T04:03:21;14.70;99.90
6758;DHT22;3416;53.074;8.822;2022-10-29T04:05:48;14.70;99.90
6758;DHT22;3416;53.074;8.822;2022-10-29T04:08:15;14.60;99.90
6758;DHT22;3416;53.074;8.822;2022-10-29T04:10:43;14.60;99.90
6758;DHT22;3416;53.074;8.822;2022-10-29T04:13:11;14.60;99.90
6758;DHT22;3416;53.074;8.822;2022-10-29T04:15:39;14.50;99.90
6758;DHT22;3416;53.074;8.822;2022-10-29T04:18:08;14.50;99.90
6758;DHT22;3416;53.074;8.822;2022-10-29T04:20:35;14.50;99.90
6758;DHT22;3416;53.074;8.822;2022-10-29T04:23:03;14.50;99.90
6758;DHT22;3416;53.074;8.822;2022-10-29T04:25:31;14.40;99.90
6758;DHT22;3416;53.074;8.822;2022-10-29T04:27:58;14.40;99.90
6758;DHT22;3416;53.074;8.822;2022-10-29T04:30:25;14.30;99.90
6758;DHT22;3416;53.074;8.822;2022-10-29T04:32:55;14.40;99.90
6758;DHT22;3416;53.074;8.822;2022-10-29T04:35:25;14.40;99.90
6758;DHT22;3416;53.074;8.822;2022-10-29T04:37:52;14.40;99.90
6758;DHT22;3416;53.074;8.822;2022-10-29T04:40:20;14.50;99.90
6758;DHT22;3416;53.074;8.822;2022-10-29T04:42:49;14.30;99.90
6758;DHT22;3416;53.074;8.822;2022-10-29T04:45:18;14.30;99.90
6758;DHT22;3416;53.074;8.822;2022-10-29T04:47:45;14.30;99.90
6758;DHT22;3416;53.074;8.822;2022-10-29T04:50:14;14.20;99.90
6758;DHT22;3416;53.074;8.822;2022-10-29T04:52:45;14.20;99.90
6758;DHT22;3416;53.074;8.822;2022-10-29T04:55:17;14.30;99.90
6758;DHT22;3416;53.074;8.822;2022-10-29T04:57:48;14.20;99.90
6758;DHT22;3416;53.074;8.822;2022-10-29T05:00:15;14.30;99.90
6758;DHT22;3416;53.074;8.822;2022-10-29T05:02:46;14.40;99.90
6758;DHT22;3416;53.074;8.822;2022-10-29T05:05:14;14.60;99.90
6758;DHT22;3416;53.074;8.822;2022-10-29T05:07:43;14.60;99.90
6758;DHT22;3416;53.074;8.822;2022-10-29T05:10:11;14.60;99.90
6758;DHT22;3416;53.074;8.822;2022-10-29T05:12:38;14.60;99.90
6758;DHT22;3416;53.074;8.822;2022-10-29T05:15:09;14.60;99.90
6758;DHT22;3416;53.074;8.822;2022-10-29T05:17:37;14.60;99.90
6758;DHT22;3416;53.074;8.822;2022-10-29T05:20:07;14.60;99.90
6758;DHT22;3416;53.074;8.822;2022-10-29T05:22:34;14.60;99.90
6758;DHT22;3416;53.074;8.822;2022-10-29T05:25:12;14.70;99.90
6758;DHT22;3416;53.074;8.822;2022-10-29T05:27:39;14.60;99.90
6758;DHT22;3416;53.074;8.822;2022-10-29T05:30:08;14.50;99.90
6758;DHT22;3416;53.074;8.822;2022-10-29T05:32:36;14.50;99.90
6758;DHT22;3416;53.074;8.822;2022-10-29T05:35:04;14.40;99.90
6758;DHT22;3416;53.074;8.822;2022-10-29T05:37:32;14.50;99.90
6758;DHT22;3416;53.074;8.822;2022-10-29T05:39:59;14.40;99.90
6758;DHT22;3416;53.074;8.822;2022-10-29T05:42:27;14.30;99.90
6758;DHT22;3416;53.074;8.822;2022-10-29T05:44:54;14.10;99.90
6758;DHT22;3416;53.074;8.822;2022-10-29T05:47:21;14.00;99.90
6758;DHT22;3416;53.074;8.822;2022-10-29T05:49:51;14.10;99.90
6758;DHT22;3416;53.074;8.822;2022-10-29T05:52:18;14.10;99.90
6758;DHT22;3416;53.074;8.822;2022-10-29T05:54:48;14.10;99.90
6758;DHT22;3416;53.074;8.822;2022-10-29T05:57:15;14.00;99.90
6758;DHT22;3416;53.074;8.822;2022-10-29T05:59:43;14.10;99.90
6758;DHT22;3416;53.074;8.822;2022-10-29T06:02:10;14.00;99.90
6758;DHT22;3416;53.074;8.822;2022-10-29T06:04:37;14.10;99.90
6758;DHT22;3416;53.074;8.822;2022-10-29T06:07:04;14.10;99.90
6758;DHT22;3416;53.074;8.822;2022-10-29T06:09:31;14.10;99.90
6758;DHT22;3416;53.074;8.822;2022-10-29T06:11:59;14.10;99.90
6758;DHT22;3416;53.074;8.822;2022-10-29T06:14:25;14.10;99.90
6758;DHT22;3416;53.074;8.822;2022-10-29T06:16:54;14.20;99.90
6758;DHT22;3416;53.074;8.822;2022-10-29T06:19:20;14.10;99.90
6758;DHT22;3416;53.074;8.822;2022-10-29T06:21:47;14.00;99.90
6758;DHT22;3416;53.074;8.822;2022-10-29T06:24:14;14.10;99.90
6758;DHT22;3416;53.074;8.822;2022-10-29T06:26:43;14.10;99.90
6758;DHT22;3416;53.074;8.822;2022-10-29T06:29:10;14.00;99.90
6758;DHT22;3416;53.074;8.822;2022-10-29T06:31:37;14.10;99.90
6758;DHT22;3416;53.074;8.822;2022-10-29T06:34:05;14.10;99.90
6758;DHT22;3416;53.074;8.822;2022-10-29T06:36:32;14.10;99.90
6758;DHT22;3416;53.074;8.822;2022-10-29T06:38:59;14.10;99.90
6758;DHT22;3416;53.074;8.822;2022-10-29T06:41:27;14.20;99.90
6758;DHT22;3416;53.074;8.822;2022-10-29T06:43:56;14.20;99.90
6758;DHT22;3416;53.074;8.822;2022-10-29T06:46:23;14.30;99.90
6758;DHT22;3416;53.074;8.822;2022-10-29T06:48:50;14.30;99.90
6758;DHT22;3416;53.074;8.822;2022-10-29T06:51:18;14.20;99.90
6758;DHT22;3416;53.074;8.822;2022-10-29T06:53:45;14.10;99.90
6758;DHT22;3416;53.074;8.822;2022-10-29T06:56:13;14.20;99.90
6758;DHT22;3416;53.074;8.822;2022-10-29T06:58:40;14.10;99.90
6758;DHT22;3416;53.074;8.822;2022-10-29T07:01:07;14.10;99.90
6758;DHT22;3416;53.074;8.822;2022-10-29T07:03:34;14.40;99.90
6758;DHT22;3416;53.074;8.822;2022-10-29T07:06:01;14.50;99.90
6758;DHT22;3416;53.074;8.822;2022-10-29T07:08:29;14.60;99.90
6758;DHT22;3416;53.074;8.822;2022-10-29T07:10:57;14.80;99.90
6758;DHT22;3416;53.074;8.822;2022-10-29T07:13:27;14.80;99.90
6758;DHT22;3416;53.074;8.822;2022-10-29T07:15:55;14.90;99.90
6758;DHT22;3416;53.074;8.822;2022-10-29T07:18:22;14.90;99.90
6758;DHT22;3416;53.074;8.822;2022-10-29T07:20:49;15.00;99.90
6758;DHT22;3416;53.074;8.822;2022-10-29T07:23:15;15.00;99.90
6758;DHT22;3416;53.074;8.822;2022-10-29T07:25:45;15.10;99.90
6758;DHT22;3416;53.074;8.822;2022-10-29T07:28:14;15.20;99.90
6758;DHT22;3416;53.074;8.822;2022-10-29T07:30:42;15.20;99.90
6758;DHT22;3416;53.074;8.822;2022-10-29T07:33:09;15.30;99.90
6758;DHT22;3416;53.074;8.822;2022-10-29T07:35:37;15.70;99.90
6758;DHT22;3416;53.074;8.822;2022-10-29T07:38:06;16.10;99.90
6758;DHT22;3416;53.074;8.822;2022-10-29T07:40:33;16.50;99.90
6758;DHT22;3416;53.074;8.822;2022-10-29T07:43:02;16.80;99.90
6758;DHT22;3416;53.074;8.822;2022-10-29T07:45:29;17.00;99.90
6758;DHT22;3416;53.074;8.822;2022-10-29T07:48:00;17.20;99.90
6758;DHT22;3416;53.074;8.822;2022-10-29T07:50:29;17.30;99.90
6758;DHT22;3416;53.074;8.822;2022-10-29T07:53:01;17.70;99.90
6758;DHT22;3416;53.074;8.822;2022-10-29T07:55:28;18.30;99.90
6758;DHT22;3416;53.074;8.822;2022-10-29T07:57:55;19.20;99.90
6758;DHT22;3416;53.074;8.822;2022-10-29T08:00:25;19.70;99.90
6758;DHT22;3416;53.074;8.822;2022-10-29T08:02:52;20.10;99.90
6758;DHT22;3416;53.074;8.822;2022-10-29T08:05:20;20.20;99.90
6758;DHT22;3416;53.074;8.822;2022-10-29T08:07:48;20.30;99.90
6758;DHT22;3416;53.074;8.822;2022-10-29T08:10:15;20.10;99.90
6758;DHT22;3416;53.074;8.822;2022-10-29T08:12:47;20.50;99.90
6758;DHT22;3416;53.074;8.822;2022-10-29T08:15:15;21.10;99.90
6758;DHT22;3416;53.074;8.822;2022-10-29T08:17:43;21.70;99.90
6758;DHT22;3416;53.074;8.822;2022-10-29T08:20:11;22.00;99.90
6758;DHT22;3416;53.074;8.822;2022-10-29T08:22:38;21.50;99.90
6758;DHT22;3416;53.074;8.822;2022-10-29T08:25:06;21.00;99.90
6758;DHT22;3416;53.074;8.822;2022-10-29T08:27:33;20.30;99.90
6758;DHT22;3416;53.074;8.822;2022-10-29T08:30:00;19.60;99.90
6758;DHT22;3416;53.074;8.822;2022-10-29T08:32:27;19.30;99.90
6758;DHT22;3416;53.074;8.822;2022-10-29T08:34:55;19.10;99.90
6758;DHT22;3416;53.074;8.822;2022-10-29T08:37:22;18.80;99.90
6758;DHT22;3416;53.074;8.822;2022-10-29T08:39:49;18.60;99.90
6758;DHT22;3416;53.074;8.822;2022-10-29T08:42:26;18.40;99.90
6758;DHT22;3416;53.074;8.822;2022-10-29T08:45:20;18.30;99.90
6758;DHT22;3416;53.074;8.822;2022-10-29T08:48:00;18.10;99.90
6758;DHT22;3416;53.074;8.822;2022-10-29T08:50:33;17.90;99.90
6758;DHT22;3416;53.074;8.822;2022-10-29T08:53:16;17.90;99.90
6758;DHT22;3416;53.074;8.822;2022-10-29T08:55:45;17.80;99.90
6758;DHT22;3416;53.074;8.822;2022-10-29T08:58:28;17.70;99.90
6758;DHT22;3416;53.074;8.822;2022-10-29T09:00:57;17.60;99.90
6758;DHT22;3416;53.074;8.822;2022-10-29T09:03:26;17.60;99.90
6758;DHT22;3416;53.074;8.822;2022-10-29T09:06:02;17.70;99.90
6758;DHT22;3416;53.074;8.822;2022-10-29T09:08:42;17.60;99.90
6758;DHT22;3416;53.074;8.822;2022-10-29T09:11:24;17.60;99.90
6758;DHT22;3416;53.074;8.822;2022-10-29T09:14:02;17.90;99.90
6758;DHT22;3416;53.074;8.822;2022-10-29T09:16:38;18.60;99.90
6758;DHT22;3416;53.074;8.822;2022-10-29T09:19:19;18.90;99.90
6758;DHT22;3416;53.074;8.822;2022-10-29T09:21:58;18.90;99.90
6758;DHT22;3416;53.074;8.822;2022-10-29T09:24:33;19.10;99.90
6758;DHT22;3416;53.074;8.822;2022-10-29T09:27:05;19.70;99.90
6758;DHT22;3416;53.074;8.822;2022-10-29T09:32:22;19.70;99.90
6758;DHT22;3416;53.074;8.822;2022-10-29T09:34:55;19.60;99.90
6758;DHT22;3416;53.074;8.822;2022-10-29T09:37:33;19.60;99.90
6758;DHT22;3416;53.074;8.822;2022-10-29T09:40:04;19.30;99.90
6758;DHT22;3416;53.074;8.822;2022-10-29T09:42:35;19.30;99.90
6758;DHT22;3416;53.074;8.822;2022-10-29T09:45:05;19.50;99.90
6758;DHT22;3416;53.074;8.822;2022-10-29T09:47:41;19.40;99.90
6758;DHT22;3416;53.074;8.822;2022-10-29T09:50:17;19.50;99.90
6758;DHT22;3416;53.074;8.822;2022-10-29T09:52:48;19.40;99.90
6758;DHT22;3416;53.074;8.822;2022-10-29T09:55:19;19.50;99.90
6758;DHT22;3416;53.074;8.822;2022-10-29T09:57:47;19.70;99.90
6758;DHT22;3416;53.074;8.822;2022-10-29T10:00:18;19.70;99.90
6758;DHT22;3416;53.074;8.822;2022-10-29T10:02:49;19.70;99.90
6758;DHT22;3416;53.074;8.822;2022-10-29T10:05:24;19.70;99.90
6758;DHT22;3416;53.074;8.822;2022-10-29T10:08:06;20.20;99.90
6758;DHT22;3416;53.074;8.822;2022-10-29T10:10:35;20.60;99.90
6758;DHT22;3416;53.074;8.822;2022-10-29T10:13:05;20.90;99.90
6758;DHT22;3416;53.074;8.822;2022-10-29T10:15:33;20.90;99.90
6758;DHT22;3416;53.074;8.822;2022-10-29T10:18:02;21.00;99.90
6758;DHT22;3416;53.074;8.822;2022-10-29T10:20:39;21.10;99.90
6758;DHT22;3416;53.074;8.822;2022-10-29T10:23:36;21.30;99.90
6758;DHT22;3416;53.074;8.822;2022-10-29T10:26:04;21.50;99.90
6758;DHT22;3416;53.074;8.822;2022-10-29T10:28:31;21.30;99.90
6758;DHT22;3416;53.074;8.822;2022-10-29T10:31:09;21.20;99.90
6758;DHT22;3416;53.074;8.822;2022-10-29T10:33:46;20.80;99.90
6758;DHT22;3416;53.074;8.822;2022-10-29T10:36:14;20.60;99.90
6758;DHT22;3416;53.074;8.822;2022-10-29T10:38:44;20.60;99.90
6758;DHT22;3416;53.074;8.822;2022-10-29T10:41:13;20.60;99.90
6758;DHT22;3416;53.074;8.822;2022-10-29T10:43:42;20.80;99.90
6758;DHT22;3416;53.074;8.822;2022-10-29T10:46:14;21.10;99.90
6758;DHT22;3416;53.074;8.822;2022-10-29T10:48:42;21.30;99.90
6758;DHT22;3416;53.074;8.822;2022-10-29T10:51:16;21.30;99.90
6758;DHT22;3416;53.074;8.822;2022-10-29T10:53:45;21.20;99.90
6758;DHT22;3416;53.074;8.822;2022-10-29T10:56:18;21.20;99.90
6758;DHT22;3416;53.074;8.822;2022-10-29T10:58:50;21.30;99.90
6758;DHT22;3416;53.074;8.822;2022-10-29T11:01:22;21.30;99.90
6758;DHT22;3416;53.074;8.822;2022-10-29T11:03:57;21.60;99.90
6758;DHT22;3416;53.074;8.822;2022-10-29T11:06:30;21.40;99.90
6758;DHT22;3416;53.074;8.822;2022-10-29T11:09:05;21.30;99.90
6758;DHT22;3416;53.074;8.822;2022-10-29T11:11:35;21.40;99.90
6758;DHT22;3416;53.074;8.822;2022-10-29T11:14:08;21.40;99.90
6758;DHT22;3416;53.074;8.822;2022-10-29T11:16:40;21.40;99.90
6758;DHT22;3416;53.074;8.822;2022-10-29T11:19:16;21.40;99.90
6758;DHT22;3416;53.074;8.822;2022-10-29T11:21:53;21.30;99.90
6758;DHT22;3416;53.074;8.822;2022-10-29T11:24:26;21.40;99.90
6758;DHT22;3416;53.074;8.822;2022-10-29T11:27:01;21.30;99.90
6758;DHT22;3416;53.074;8.822;2022-10-29T11:29:36;21.30;99.90
6758;DHT22;3416;53.074;8.822;2022-10-29T11:35:28;21.20;99.90
6758;DHT22;3416;53.074;8.822;2022-10-29T11:38:12;21.00;99.90
6758;DHT22;3416;53.074;8.822;2022-10-29T11:40:49;21.20;99.90
6758;DHT22;3416;53.074;8.822;2022-10-29T11:43:20;20.90;99.90
6758;DHT22;3416;53.074;8.822;2022-10-29T11:45:57;21.00;99.90
6758;DHT22;3416;53.074;8.822;2022-10-29T11:48:39;20.90;99.90
6758;DHT22;3416;53.074;8.822;2022-10-29T11:51:18;20.90;99.90
6758;DHT22;3416;53.074;8.822;2022-10-29T11:53:55;20.90;99.90
6758;DHT22;3416;53.074;8.822;2022-10-29T11:56:36;20.70;99.90
6758;DHT22;3416;53.074;8.822;2022-10-29T11:59:12;20.70;99.90
6758;DHT22;3416;53.074;8.822;2022-10-29T12:01:48;20.80;99.90
6758;DHT22;3416;53.074;8.822;2022-10-29T12:04:26;20.90;99.90
6758;DHT22;3416;53.074;8.822;2022-10-29T12:07:03;20.90;99.90
6758;DHT22;3416;53.074;8.822;2022-10-29T12:09:58;20.90;99.90
6758;DHT22;3416;53.074;8.822;2022-10-29T12:12:33;21.00;99.90
6758;DHT22;3416;53.074;8.822;2022-10-29T12:15:11;21.10;99.90
6758;DHT22;3416;53.074;8.822;2022-10-29T12:17:42;21.10;99.90
6758;DHT22;3416;53.074;8.822;2022-10-29T12:20:16;21.10;99.90
6758;DHT22;3416;53.074;8.822;2022-10-29T12:22:48;21.20;99.90
6758;DHT22;3416;53.074;8.822;2022-10-29T12:25:27;21.40;99.90
6758;DHT22;3416;53.074;8.822;2022-10-29T12:28:04;21.50;99.90
6758;DHT22;3416;53.074;8.822;2022-10-29T12:30:39;21.40;99.90
6758;DHT22;3416;53.074;8.822;2022-10-29T12:33:15;21.40;99.90
6758;DHT22;3416;53.074;8.822;2022-10-29T12:35:48;21.60;99.90
6758;DHT22;3416;53.074;8.822;2022-10-29T12:38:27;21.70;99.90
6758;DHT22;3416;53.074;8.822;2022-10-29T12:41:00;21.70;99.90
6758;DHT22;3416;53.074;8.822;2022-10-29T12:43:32;22.00;99.90
6758;DHT22;3416;53.074;8.822;2022-10-29T12:46:05;22.00;99.90
6758;DHT22;3416;53.074;8.822;2022-10-29T12:48:38;22.00;99.90
6758;DHT22;3416;53.074;8.822;2022-10-29T12:51:15;22.00;99.90
6758;DHT22;3416;53.074;8.822;2022-10-29T12:53:57;21.90;99.90
6758;DHT22;3416;53.074;8.822;2022-10-29T12:56:28;21.80;99.90
6758;DHT22;3416;53.074;8.822;2022-10-29T12:58:57;21.70;99.90
6758;DHT22;3416;53.074;8.822;2022-10-29T13:01:47;21.50;99.90
6758;DHT22;3416;53.074;8.822;2022-10-29T13:04:25;21.40;99.90
6758;DHT22;3416;53.074;8.822;2022-10-29T13:07:03;21.30;99.90
6758;DHT22;3416;53.074;8.822;2022-10-29T13:09:31;21.40;99.90
6758;DHT22;3416;53.074;8.822;2022-10-29T13:12:01;21.30;99.90
6758;DHT22;3416;53.074;8.822;2022-10-29T13:14:38;21.40;99.90
6758;DHT22;3416;53.074;8.822;2022-10-29T13:17:23;21.50;99.90
6758;DHT22;3416;53.074;8.822;2022-10-29T13:19:55;21.50;99.90
6758;DHT22;3416;53.074;8.822;2022-10-29T13:22:51;21.60;99.90
6758;DHT22;3416;53.074;8.822;2022-10-29T13:25:43;21.60;99.90
6758;DHT22;3416;53.074;8.822;2022-10-29T13:28:45;21.70;99.90
6758;DHT22;3416;53.074;8.822;2022-10-29T13:34:54;21.80;99.90
6758;DHT22;3416;53.074;8.822;2022-10-29T13:43:31;21.70;99.90
6758;DHT22;3416;53.074;8.822;2022-10-29T13:49:00;21.90;99.90
6758;DHT22;3416;53.074;8.822;2022-10-29T13:51:36;22.00;99.90
6758;DHT22;3416;53.074;8.822;2022-10-29T13:54:08;22.10;99.90
6758;DHT22;3416;53.074;8.822;2022-10-29T13:56:42;22.10;99.90
6758;DHT22;3416;53.074;8.822;2022-10-29T13:59:18;21.90;99.90
6758;DHT22;3416;53.074;8.822;2022-10-29T14:01:55;21.90;99.90
6758;DHT22;3416;53.074;8.822;2022-10-29T14:04:25;21.80;99.90
6758;DHT22;3416;53.074;8.822;2022-10-29T14:06:56;21.70;99.90
6758;DHT22;3416;53.074;8.822;2022-10-29T14:09:32;21.60;99.90
6758;DHT22;3416;53.074;8.822;2022-10-29T14:12:02;21.60;99.90
6758;DHT22;3416;53.074;8.822;2022-10-29T14:14:33;21.50;99.90
6758;DHT22;3416;53.074;8.822;2022-10-29T14:17:10;21.40;99.90
6758;DHT22;3416;53.074;8.822;2022-10-29T14:19:41;21.30;99.90
6758;DHT22;3416;53.074;8.822;2022-10-29T14:22:22;21.30;99.90
6758;DHT22;3416;53.074;8.822;2022-10-29T14:24:54;21.30;99.90
6758;DHT22;3416;53.074;8.822;2022-10-29T14:27:21;21.20;99.90
6758;DHT22;3416;53.074;8.822;2022-10-29T14:29:48;21.20;99.90
6758;DHT22;3416;53.074;8.822;2022-10-29T14:32:16;21.30;99.90
6758;DHT22;3416;53.074;8.822;2022-10-29T14:34:44;21.20;99.90
6758;DHT22;3416;53.074;8.822;2022-10-29T14:37:14;21.20;99.90
6758;DHT22;3416;53.074;8.822;2022-10-29T14:39:45;21.20;99.90
6758;DHT22;3416;53.074;8.822;2022-10-29T14:42:16;21.20;99.90
6758;DHT22;3416;53.074;8.822;2022-10-29T14:44:48;21.10;99.90
6758;DHT22;3416;53.074;8.822;2022-10-29T14:47:22;21.20;99.90
6758;DHT22;3416;53.074;8.822;2022-10-29T14:49:50;21.30;99.90
6758;DHT22;3416;53.074;8.822;2022-10-29T14:52:26;21.30;99.90
6758;DHT22;3416;53.074;8.822;2022-10-29T14:54:56;21.30;99.90
6758;DHT22;3416;53.074;8.822;2022-10-29T14:57:25;21.30;99.90
6758;DHT22;3416;53.074;8.822;2022-10-29T14:59:55;21.40;99.90
6758;DHT22;3416;53.074;8.822;2022-10-29T15:02:22;21.20;99.90
6758;DHT22;3416;53.074;8.822;2022-10-29T15:04:55;21.20;99.90
6758;DHT22;3416;53.074;8.822;2022-10-29T15:07:33;21.30;99.90
6758;DHT22;3416;53.074;8.822;2022-10-29T15:10:20;21.20;99.90
6758;DHT22;3416;53.074;8.822;2022-10-29T15:12:48;21.20;99.90
6758;DHT22;3416;53.074;8.822;2022-10-29T15:15:24;21.10;99.90
6758;DHT22;3416;53.074;8.822;2022-10-29T15:17:54;21.10;99.90
6758;DHT22;3416;53.074;8.822;2022-10-29T15:20:26;21.10;99.90
6758;DHT22;3416;53.074;8.822;2022-10-29T15:22:56;21.10;99.90
6758;DHT22;3416;53.074;8.822;2022-10-29T15:25:28;20.90;99.90
6758;DHT22;3416;53.074;8.822;2022-10-29T15:27:56;21.00;99.90
6758;DHT22;3416;53.074;8.822;2022-10-29T15:30:30;20.90;99.90
6758;DHT22;3416;53.074;8.822;2022-10-29T15:32:58;20.70;99.90
6758;DHT22;3416;53.074;8.822;2022-10-29T15:35:26;20.70;99.90
6758;DHT22;3416;53.074;8.822;2022-10-29T15:37:54;20.70;99.90
6758;DHT22;3416;53.074;8.822;2022-10-29T15:40:22;20.40;99.90
6758;DHT22;3416;53.074;8.822;2022-10-29T15:42:51;20.10;99.90
6758;DHT22;3416;53.074;8.822;2022-10-29T15:45:23;20.30;99.90
6758;DHT22;3416;53.074;8.822;2022-10-29T15:47:54;20.00;99.90
6758;DHT22;3416;53.074;8.822;2022-10-29T15:50:23;20.00;99.90
6758;DHT22;3416;53.074;8.822;2022-10-29T15:52:53;19.90;99.90
6758;DHT22;3416;53.074;8.822;2022-10-29T15:55:24;19.80;99.90
6758;DHT22;3416;53.074;8.822;2022-10-29T15:58:03;19.70;99.90
6758;DHT22;3416;53.074;8.822;2022-10-29T16:00:30;19.60;99.90
6758;DHT22;3416;53.074;8.822;2022-10-29T16:03:01;19.70;99.90
6758;DHT22;3416;53.074;8.822;2022-10-29T16:05:32;19.60;99.90
6758;DHT22;3416;53.074;8.822;2022-10-29T16:08:01;19.60;99.90
6758;DHT22;3416;53.074;8.822;2022-10-29T16:10:29;19.50;99.90
6758;DHT22;3416;53.074;8.822;2022-10-29T16:12:57;19.40;99.90
6758;DHT22;3416;53.074;8.822;2022-10-29T16:15:24;19.40;99.90
6758;DHT22;3416;53.074;8.822;2022-10-29T16:17:51;19.30;99.90
6758;DHT22;3416;53.074;8.822;2022-10-29T16:20:18;19.30;99.90
6758;DHT22;3416;53.074;8.822;2022-10-29T16:22:47;19.10;99.90
6758;DHT22;3416;53.074;8.822;2022-10-29T16:25:21;19.20;99.90
6758;DHT22;3416;53.074;8.822;2022-10-29T16:27:48;19.20;99.90
6758;DHT22;3416;53.074;8.822;2022-10-29T16:30:17;19.20;99.90
6758;DHT22;3416;53.074;8.822;2022-10-29T16:32:44;19.20;99.90
6758;DHT22;3416;53.074;8.822;2022-10-29T16:35:18;19.30;99.90
6758;DHT22;3416;53.074;8.822;2022-10-29T16:37:46;19.10;99.90
6758;DHT22;3416;53.074;8.822;2022-10-29T16:40:13;19.20;99.90
6758;DHT22;3416;53.074;8.822;2022-10-29T16:42:40;19.10;99.90
6758;DHT22;3416;53.074;8.822;2022-10-29T16:45:12;19.10;99.90
6758;DHT22;3416;53.074;8.822;2022-10-29T16:47:40;19.20;99.90
6758;DHT22;3416;53.074;8.822;2022-10-29T16:50:13;19.10;99.90